Time;durP1;ratioP1;P1;durP2;ratioP2;P2;SDS_P1;SDS_P2;PMS_P1;PMS_P2;Temp;Humidity;BMP_temperature;BMP_pressure;BME280_temperature;BME280_humidity;BME280_pressure;Samples;Min_cycle;Max_cycle;Signal;HPM_P1;HPM_P2
2022/12/19 00:00:26;;;;;;;21.17;7.20;;;;;;;-3.85;64.69;102640.41;2036747;29;20307;-65
2022/12/19 00:01:32;;;;;;;26.43;6.87;;;;;;;-3.90;64.73;102632.94;2029072;29;20304;-65
2022/12/19 00:02:34;;;;;;;17.35;7.15;;;;;;;-3.88;64.86;102630.16;2029741;29;21956;-65
2022/12/19 00:03:36;;;;;;;28.67;7.88;;;;;;;-3.94;64.57;102638.56;2037337;29;21598;-65
2022/12/19 00:04:41;;;;;;;29.47;10.50;;;;;;;-4.00;65.26;102629.44;2024847;29;20440;-65
2022/12/19 00:05:46;;;;;;;20.47;9.20;;;;;;;-3.96;65.15;102630.81;2026214;29;20288;-65
2022/12/19 00:06:49;;;;;;;16.70;5.70;;;;;;;-3.97;64.98;102632.63;2040496;29;20287;-65
2022/12/19 00:07:52;;;;;;;23.92;9.27;;;;;;;-3.97;65.18;102632.63;2036756;29;20315;-65
2022/12/19 00:08:55;;;;;;;24.17;8.65;;;;;;;-3.97;65.15;102621.28;2043919;28;20024;-65
2022/12/19 00:09:57;;;;;;;25.53;8.50;;;;;;;-4.04;65.60;102623.59;2048521;29;20039;-65
2022/12/19 00:11:04;;;;;;;20.73;8.37;;;;;;;-4.03;65.44;102617.38;2041306;29;20821;-65
2022/12/19 00:12:09;;;;;;;23.42;9.48;;;;;;;-4.02;64.81;102613.78;2030816;29;20871;-65
2022/12/19 00:13:11;;;;;;;17.47;7.00;;;;;;;-4.01;65.13;102615.44;2029351;29;20047;-66
2022/12/19 00:14:14;;;;;;;30.00;8.77;;;;;;;-4.04;65.48;102609.63;2028341;29;20394;-65
2022/12/19 00:15:17;;;;;;;29.45;9.57;;;;;;;-4.09;65.44;102606.56;2036804;29;20414;-64
2022/12/19 00:16:22;;;;;;;25.73;9.68;;;;;;;-4.11;65.49;102608.50;2044744;29;20095;-64
2022/12/19 00:17:24;;;;;;;27.50;8.30;;;;;;;-4.14;65.42;102612.22;2035884;29;20058;-64
2022/12/19 00:18:26;;;;;;;17.65;6.97;;;;;;;-4.17;65.62;102612.47;2036476;29;20303;-64
2022/12/19 00:19:32;;;;;;;15.97;8.07;;;;;;;-4.18;65.74;102608.19;2043935;29;20142;-64
2022/12/19 00:20:34;;;;;;;18.50;7.63;;;;;;;-4.22;65.31;102612.03;2036416;29;20299;-64
2022/12/19 00:21:37;;;;;;;21.52;8.07;;;;;;;-4.26;65.74;102610.63;2028777;29;21652;-65
2022/12/19 00:22:39;;;;;;;20.30;7.18;;;;;;;-4.27;66.05;102608.97;2037017;29;20044;-64
2022/12/19 00:23:46;;;;;;;20.07;6.90;;;;;;;-4.32;65.55;102619.88;2048952;29;20070;-64
2022/12/19 00:24:48;;;;;;;21.95;6.35;;;;;;;-4.34;65.74;102613.09;2049356;29;20282;-64
2022/12/19 00:25:50;;;;;;;16.58;7.78;;;;;;;-4.36;65.64;102615.00;2047823;29;20499;-64
2022/12/19 00:26:52;;;;;;;20.30;7.20;;;;;;;-4.40;66.04;102609.19;2040301;29;20032;-65
2022/12/19 00:27:54;;;;;;;21.67;6.65;;;;;;;-4.45;66.15;102621.84;2041595;29;20062;-65
2022/12/19 00:28:58;;;;;;;29.73;8.10;;;;;;;-4.47;65.94;102608.88;2032723;29;20559;-64
2022/12/19 00:30:03;;;;;;;14.32;6.65;;;;;;;-4.50;65.77;102614.38;2011441;29;20083;-64
2022/12/19 00:31:06;;;;;;;23.77;8.30;;;;;;;-4.51;66.46;102617.97;2030218;29;20028;-64
2022/12/19 00:32:11;;;;;;;21.02;7.25;;;;;;;-4.57;66.40;102613.22;2043887;28;20058;-64
2022/12/19 00:33:13;;;;;;;27.13;8.70;;;;;;;-4.61;66.65;102616.22;2031062;29;20475;-64
2022/12/19 00:34:17;;;;;;;16.48;6.80;;;;;;;-4.62;66.38;102615.41;2034050;29;20044;-65
2022/12/19 00:35:19;;;;;;;17.25;7.18;;;;;;;-4.68;66.54;102616.72;2041577;29;20357;-65
2022/12/19 00:36:23;;;;;;;27.58;7.55;;;;;;;-4.71;67.02;102605.66;2030903;29;20090;-65
2022/12/19 00:37:27;;;;;;;26.17;8.10;;;;;;;-4.73;66.58;102607.56;2029505;29;20046;-65
2022/12/19 00:38:31;;;;;;;18.92;8.55;;;;;;;-4.74;67.37;102612.00;2037032;29;20051;-65
2022/12/19 00:39:33;;;;;;;32.55;9.90;;;;;;;-4.73;67.01;102602.31;2044708;29;20031;-64
2022/12/19 00:40:37;;;;;;;20.50;6.53;;;;;;;-4.75;67.08;102601.63;2044624;29;20050;-65
2022/12/19 00:41:46;;;;;;;23.00;8.50;;;;;;;-4.77;67.35;102603.53;2038000;29;20043;-65
2022/12/19 00:42:50;;;;;;;29.92;10.35;;;;;;;-4.77;67.15;102600.91;2035395;29;20048;-65
2022/12/19 00:43:57;;;;;;;28.95;9.25;;;;;;;-4.81;67.26;102604.75;2045145;29;20395;-65
2022/12/19 00:44:59;;;;;;;15.80;6.47;;;;;;;-4.82;67.33;102608.31;2036214;29;20039;-64
2022/12/19 00:46:21;;;;;;;30.08;8.90;;;;;;;-4.88;67.40;102608.88;2037103;29;20058;-65
2022/12/19 00:47:24;;;;;;;12.57;6.90;;;;;;;-4.90;67.51;102604.56;2029214;29;20040;-65
2022/12/19 00:48:31;;;;;;;25.08;7.93;;;;;;;-4.90;67.58;102609.81;2034660;29;20055;-65
2022/12/19 00:49:33;;;;;;;26.50;8.63;;;;;;;-4.91;67.36;102604.69;2046116;28;20043;-64
2022/12/19 00:50:37;;;;;;;21.77;8.13;;;;;;;-4.94;67.52;102600.53;2036066;29;20055;-64
2022/12/19 00:51:40;;;;;;;17.52;8.40;;;;;;;-4.93;67.70;102604.81;2037364;29;20047;-64
2022/12/19 00:52:46;;;;;;;28.63;8.60;;;;;;;-4.92;67.98;102611.75;2033337;29;20051;-65
2022/12/19 00:53:48;;;;;;;17.90;7.05;;;;;;;-4.92;67.99;102614.38;2034076;29;20051;-64
2022/12/19 00:54:50;;;;;;;18.02;6.70;;;;;;;-4.95;67.73;102604.13;2038184;29;20472;-64
2022/12/19 00:55:55;;;;;;;22.38;8.20;;;;;;;-4.97;67.81;102605.19;2023998;29;20040;-64
2022/12/19 00:56:57;;;;;;;31.40;8.93;;;;;;;-4.99;68.16;102605.31;2029024;29;20042;-64
2022/12/19 00:58:00;;;;;;;18.23;7.10;;;;;;;-5.00;68.31;102593.16;2037278;29;20056;-64
2022/12/19 00:59:02;;;;;;;19.50;7.20;;;;;;;-4.98;68.03;102593.03;2040425;29;20491;-64
2022/12/19 01:00:06;;;;;;;14.30;6.53;;;;;;;-4.97;67.96;102590.28;2034054;29;20044;-64
2022/12/19 01:01:12;;;;;;;27.50;8.32;;;;;;;-4.94;67.81;102594.44;2032597;29;20055;-65
2022/12/19 01:02:14;;;;;;;30.63;8.65;;;;;;;-4.99;68.03;102586.13;2028989;29;20089;-65
2022/12/19 01:03:17;;;;;;;18.20;8.55;;;;;;;-5.00;68.40;102584.47;2036934;29;20039;-65
2022/12/19 01:04:21;;;;;;;25.00;6.57;;;;;;;-5.00;68.37;102582.66;2040772;29;20040;-65
2022/12/19 01:05:26;;;;;;;17.55;6.68;;;;;;;-5.00;68.12;102587.09;2033806;29;20046;-65
2022/12/19 01:06:29;;;;;;;19.05;8.48;;;;;;;-5.02;67.81;102591.63;2041201;29;20044;-65
2022/12/19 01:07:30;;;;;;;21.88;8.93;;;;;;;-5.00;68.22;102587.91;2040134;29;20035;-65
2022/12/19 01:08:36;;;;;;;27.90;8.30;;;;;;;-5.00;68.44;102589.72;2040773;29;20043;-65
2022/12/19 01:09:38;;;;;;;26.38;8.55;;;;;;;-5.03;68.37;102585.53;2047845;29;20045;-65
2022/12/19 01:10:45;;;;;;;28.08;8.80;;;;;;;-5.04;68.26;102593.53;2044258;29;20051;-65
2022/12/19 01:13:08;;;;;;;24.30;7.88;;;;;;;-5.04;68.42;102583.03;2039139;29;20130;-65
2022/12/19 01:14:11;;;;;;;27.98;7.97;;;;;;;-5.06;68.63;102580.53;2044402;28;20050;-65
2022/12/19 01:15:16;;;;;;;19.92;7.95;;;;;;;-5.08;68.93;102582.44;2038566;29;20039;-65
2022/12/19 01:16:19;;;;;;;13.98;8.13;;;;;;;-5.08;68.98;102582.44;2028292;29;20733;-64
2022/12/19 01:17:24;;;;;;;40.30;8.43;;;;;;;-5.10;68.81;102576.53;2019420;29;20043;-65
2022/12/19 01:18:28;;;;;;;22.30;7.43;;;;;;;-5.14;68.89;102577.72;2030036;29;20124;-64
2022/12/19 01:19:30;;;;;;;19.40;7.88;;;;;;;-5.19;68.58;102569.41;2037832;29;20035;-64
2022/12/19 01:20:32;;;;;;;30.58;8.60;;;;;;;-5.17;68.70;102567.47;2044788;29;20048;-64
2022/12/19 01:21:34;;;;;;;17.88;6.05;;;;;;;-5.15;68.78;102576.06;2033092;29;20039;-63
2022/12/19 01:22:37;;;;;;;10.05;4.97;;;;;;;-5.13;68.87;102568.91;2027271;29;20044;-63
2022/12/19 01:23:40;;;;;;;17.25;7.00;;;;;;;-5.12;69.33;102570.56;2046711;28;20043;-65
2022/12/19 01:24:45;;;;;;;24.60;8.30;;;;;;;-5.13;69.26;102574.16;2048975;28;20046;-63
2022/12/19 01:25:52;;;;;;;24.15;9.02;;;;;;;-5.14;69.14;102564.59;2036153;29;20052;-63
2022/12/19 01:26:55;;;;;;;24.40;8.02;;;;;;;-5.11;68.76;102572.22;2037006;29;20413;-63
2022/12/19 01:27:59;;;;;;;26.10;7.88;;;;;;;-5.09;69.32;102566.84;2044429;29;20050;-65
2022/12/19 01:29:01;;;;;;;20.15;7.57;;;;;;;-5.06;69.48;102562.19;2049013;29;20055;-65
2022/12/19 01:30:05;;;;;;;19.65;6.65;;;;;;;-5.05;69.05;102563.84;2033264;29;20047;-64
2022/12/19 01:31:08;;;;;;;19.50;7.50;;;;;;;-5.07;69.09;102559.69;2030085;29;20397;-65
2022/12/19 01:32:13;;;;;;;16.90;6.05;;;;;;;-5.09;69.17;102557.19;2024187;29;20412;-64
2022/12/19 01:33:17;;;;;;;10.20;5.45;;;;;;;-5.10;68.92;102552.91;2022304;29;20052;-65
2022/12/19 01:34:20;;;;;;;22.58;7.47;;;;;;;-5.11;69.15;102551.22;2028724;29;20063;-66
2022/12/19 01:35:22;;;;;;;10.82;5.45;;;;;;;-5.09;69.20;102564.22;2045609;29;20043;-65
2022/12/19 01:36:24;;;;;;;20.85;7.75;;;;;;;-5.12;69.16;102560.06;2038506;29;20439;-65
2022/12/19 01:37:29;;;;;;;26.50;8.23;;;;;;;-5.12;69.41;102554.81;2037096;29;20036;-65
2022/12/19 01:38:35;;;;;;;24.02;7.70;;;;;;;-5.12;68.93;102560.06;2047564;29;20574;-65
2022/12/19 01:39:37;;;;;;;21.70;7.72;;;;;;;-5.10;69.37;102567.81;2033375;29;20511;-65
2022/12/19 01:40:41;;;;;;;22.92;8.00;;;;;;;-5.09;68.93;102564.22;2032581;29;20063;-65
2022/12/19 01:41:48;;;;;;;18.73;8.07;;;;;;;-5.07;69.43;102563.16;2029896;29;20032;-65
2022/12/19 01:42:51;;;;;;;24.55;8.52;;;;;;;-5.07;68.87;102560.53;2037870;29;20047;-65
2022/12/19 01:43:57;;;;;;;17.30;7.35;;;;;;;-5.04;69.11;102560.28;2036314;29;20059;-65
2022/12/19 01:45:07;;;;;;;22.58;9.07;;;;;;;-5.02;69.15;102565.38;2034009;29;20047;-65
2022/12/19 01:46:14;;;;;;;19.92;8.73;;;;;;;-4.97;68.66;102557.97;2036984;29;20043;-65
2022/12/19 01:47:16;;;;;;;30.70;9.77;;;;;;;-4.99;68.41;102554.63;2039897;29;20036;-65
2022/12/19 01:48:31;;;;;;;12.38;5.60;;;;;;;-5.00;68.30;102561.69;2040980;29;20039;-65
2022/12/19 01:49:36;;;;;;;13.25;5.72;;;;;;;-4.98;68.67;102558.91;2031188;29;20044;-65
2022/12/19 01:51:01;;;;;;;15.35;5.38;;;;;;;-4.97;68.74;102561.44;2030613;29;20036;-65
2022/12/19 01:52:06;;;;;;;34.75;9.85;;;;;;;-4.99;68.85;102555.47;2039382;29;20050;-65
2022/12/19 01:53:10;;;;;;;34.40;9.90;;;;;;;-4.97;68.42;102557.97;2039462;29;20038;-65
2022/12/19 01:54:21;;;;;;;18.58;7.90;;;;;;;-4.95;68.58;102562.16;2041245;29;20488;-65
2022/12/19 01:55:24;;;;;;;20.30;7.25;;;;;;;-4.90;68.44;102559.94;2036148;29;20032;-66
2022/12/19 01:56:30;;;;;;;34.83;9.23;;;;;;;-4.89;68.52;102552.91;2035196;29;20748;-65
2022/12/19 01:57:34;;;;;;;23.15;9.00;;;;;;;-4.90;68.06;102552.06;2039117;29;20066;-65
2022/12/19 01:58:40;;;;;;;32.75;10.80;;;;;;;-4.88;68.43;102553.75;2026644;29;20052;-65
2022/12/19 01:59:51;;;;;;;29.25;9.57;;;;;;;-4.86;68.52;102554.44;2026616;29;20052;-65
2022/12/19 02:00:53;;;;;;;21.17;9.13;;;;;;;-4.83;67.95;102556.81;2036992;29;20070;-65
2022/12/19 02:02:07;;;;;;;20.25;7.78;;;;;;;-4.80;67.86;102556.56;2044625;29;20046;-65
2022/12/19 02:03:22;;;;;;;17.10;6.50;;;;;;;-4.78;67.77;102557.28;2038831;29;20056;-64
2022/12/19 02:04:27;;;;;;;30.77;9.23;;;;;;;-4.77;68.20;102553.69;2034857;29;20046;-66
2022/12/19 02:05:32;;;;;;;16.73;5.68;;;;;;;-4.77;67.65;102545.81;2035688;29;20055;-65
2022/12/19 02:06:34;;;;;;;22.83;8.50;;;;;;;-4.79;68.30;102540.72;2020246;29;20048;-65
2022/12/19 02:07:37;;;;;;;21.17;8.45;;;;;;;-4.79;67.95;102545.09;2023411;29;20063;-65
2022/12/19 02:08:40;;;;;;;22.58;8.52;;;;;;;-4.84;67.99;102542.03;2022432;29;20048;-65
2022/12/19 02:09:47;;;;;;;21.08;7.25;;;;;;;-4.85;67.90;102545.59;2030005;29;20444;-65
2022/12/19 02:10:53;;;;;;;12.70;6.57;;;;;;;-4.87;67.55;102539.69;2034383;29;20036;-65
2022/12/19 02:11:58;;;;;;;24.58;10.77;;;;;;;-4.87;67.30;102545.75;2044505;28;20412;-65
2022/12/19 02:13:01;;;;;;;11.23;4.57;;;;;;;-4.86;67.42;102541.34;2042597;29;20039;-65
2022/12/19 02:14:04;;;;;;;18.08;7.70;;;;;;;-4.89;67.30;102545.03;2047943;29;20051;-65
2022/12/19 02:15:10;;;;;;;23.55;7.80;;;;;;;-4.91;67.73;102532.06;2040712;29;20042;-65
2022/12/19 02:16:34;;;;;;;18.58;7.40;;;;;;;-4.94;67.88;102537.56;2026566;29;20043;-65
2022/12/19 02:17:42;;;;;;;27.88;9.57;;;;;;;-4.97;67.34;102537.81;2030858;29;20095;-65
2022/12/19 02:18:47;;;;;;;17.52;7.13;;;;;;;-4.97;67.76;102531.75;2038516;29;20044;-65
2022/12/19 02:20:08;;;;;;;31.45;9.13;;;;;;;-4.95;68.02;102530.66;2041278;29;20103;-65
2022/12/19 02:21:32;;;;;;;13.25;7.80;;;;;;;-4.92;67.57;102519.91;2033929;29;20052;-66
2022/12/19 02:22:52;;;;;;;17.63;6.82;;;;;;;-4.92;67.89;102519.06;2038508;29;20047;-66
2022/12/19 02:24:03;;;;;;;19.60;8.23;;;;;;;-4.96;68.00;102518.47;2044242;29;20464;-66
2022/12/19 02:25:16;;;;;;;19.42;6.28;;;;;;;-4.98;67.94;102511.69;2045415;28;20046;-65
2022/12/19 02:26:43;;;;;;;28.85;9.07;;;;;;;-4.96;67.47;102513.25;2040452;29;20042;-65
2022/12/19 02:28:22;;;;;;;16.92;7.32;;;;;;;-5.01;67.95;102510.19;2036707;29;20040;-66
2022/12/19 02:29:47;;;;;;;32.33;7.85;;;;;;;-5.00;67.59;102514.47;2043722;29;20046;-65
2022/12/19 02:31:01;;;;;;;27.67;8.77;;;;;;;-5.02;68.14;102523.41;2047025;29;20130;-66
2022/12/19 02:32:19;;;;;;;12.85;6.55;;;;;;;-4.98;68.13;102519.56;2040908;29;20046;-65
2022/12/19 02:33:33;;;;;;;15.80;7.00;;;;;;;-4.96;67.66;102523.72;2041703;29;20031;-65
2022/12/19 02:34:51;;;;;;;14.40;6.63;;;;;;;-4.94;67.90;102515.75;2036014;29;20044;-65
2022/12/19 02:36:01;;;;;;;26.58;8.38;;;;;;;-4.95;68.09;102520.16;2020206;29;21358;-65
2022/12/19 02:37:10;;;;;;;16.73;7.15;;;;;;;-4.95;67.46;102519.31;2030840;29;20056;-65
2022/12/19 02:38:20;;;;;;;29.40;8.52;;;;;;;-5.00;68.16;102522.34;2036009;29;20039;-65
2022/12/19 02:39:34;;;;;;;20.58;8.55;;;;;;;-5.03;68.11;102517.34;2029215;29;20055;-65
2022/12/19 02:41:04;;;;;;;16.73;7.53;;;;;;;-5.05;67.58;102500.88;2029734;29;20048;-65
2022/12/19 02:42:10;;;;;;;18.83;7.38;;;;;;;-5.02;67.95;102499.81;2032283;29;20052;-65
2022/12/19 02:43:14;;;;;;;8.63;5.38;;;;;;;-5.02;68.27;102502.44;2039083;29;20043;-65
2022/12/19 02:44:22;;;;;;;19.85;8.52;;;;;;;-5.04;67.90;102505.19;2027907;29;20040;-67
2022/12/19 02:45:28;;;;;;;21.08;7.60;;;;;;;-5.04;67.52;102489.47;2028383;29;20051;-65
2022/12/19 02:46:35;;;;;;;27.98;10.07;;;;;;;-5.05;68.04;102493.03;2035639;29;20489;-64
2022/12/19 02:47:39;;;;;;;22.90;8.23;;;;;;;-5.06;68.09;102498.41;2028479;29;20396;-64
2022/12/19 02:48:42;;;;;;;20.95;7.00;;;;;;;-5.09;67.79;102496.88;2020809;29;20051;-64
2022/12/19 02:49:43;;;;;;;34.25;6.78;;;;;;;-5.08;67.56;102485.41;2028052;29;20048;-65
2022/12/19 02:50:46;;;;;;;23.25;8.63;;;;;;;-5.08;68.06;102482.78;2027652;29;20083;-64
2022/12/19 02:51:52;;;;;;;22.42;7.50;;;;;;;-5.12;67.86;102474.34;2028862;29;20043;-65
2022/12/19 02:52:55;;;;;;;27.20;8.32;;;;;;;-5.13;67.89;102483.19;2028258;29;20063;-65
2022/12/19 02:53:57;;;;;;;25.05;8.85;;;;;;;-5.15;67.47;102479.00;2036281;29;20044;-65
2022/12/19 02:55:06;;;;;;;20.95;8.65;;;;;;;-5.17;68.16;102478.31;2028472;29;20044;-65
2022/12/19 02:56:22;;;;;;;21.30;7.18;;;;;;;-5.15;67.77;102481.63;2036832;29;20416;-64
2022/12/19 02:57:34;;;;;;;19.95;7.47;;;;;;;-5.15;68.01;102481.63;2035927;29;20044;-64
2022/12/19 02:58:48;;;;;;;22.83;9.30;;;;;;;-5.19;67.70;102478.44;2037892;29;20036;-65
2022/12/19 02:59:56;;;;;;;14.48;7.43;;;;;;;-5.22;67.98;102476.06;2025070;29;20052;-65
2022/12/19 03:01:16;;;;;;;17.30;7.72;;;;;;;-5.24;68.13;102471.91;2027830;29;20049;-65
2022/12/19 03:02:37;;;;;;;17.67;6.85;;;;;;;-5.20;68.21;102462.81;2039402;29;20040;-65
2022/12/19 03:04:03;;;;;;;17.52;5.45;;;;;;;-5.20;68.24;102462.81;2044578;29;20475;-65
2022/12/19 03:05:49;;;;;;;20.42;8.20;;;;;;;-5.25;68.19;102455.34;2024743;29;20424;-65
2022/12/19 03:06:54;;;;;;;20.27;6.55;;;;;;;-5.29;68.03;102463.63;2019931;29;20093;-65
2022/12/19 03:08:11;;;;;;;18.10;6.55;;;;;;;-5.33;68.17;102457.78;2036597;29;20037;-65
2022/12/19 03:09:24;;;;;;;29.08;7.47;;;;;;;-5.34;68.28;102457.91;2030761;29;20054;-66
2022/12/19 03:10:48;;;;;;;22.73;8.52;;;;;;;-5.33;68.41;102451.69;2018754;29;20465;-65
2022/12/19 03:11:58;;;;;;;16.17;6.35;;;;;;;-5.38;67.84;102446.84;2031014;29;20135;-65
2022/12/19 03:13:09;;;;;;;3.42;2.85;;;;;;;-5.38;68.13;102452.91;2045080;29;20051;-66
2022/12/19 03:14:20;;;;;;;14.65;5.90;;;;;;;-5.43;67.67;102465.56;2033029;29;20040;-66
2022/12/19 03:15:23;;;;;;;25.77;8.07;;;;;;;-5.45;68.37;102459.63;2026733;29;20049;-66
2022/12/19 03:16:28;;;;;;;25.25;7.72;;;;;;;-5.47;68.33;102461.53;2035273;29;20047;-65
2022/12/19 03:17:35;;;;;;;19.90;7.70;;;;;;;-5.48;68.09;102453.81;2032297;29;20070;-65
2022/12/19 03:18:37;;;;;;;24.40;7.47;;;;;;;-5.51;68.21;102449.66;2039303;29;20376;-66
2022/12/19 03:19:43;;;;;;;25.42;8.68;;;;;;;-5.49;68.64;102463.44;2032588;29;20040;-65
2022/12/19 03:21:07;;;;;;;23.30;8.23;;;;;;;-5.55;68.58;102458.72;2036763;29;20424;-65
2022/12/19 03:22:12;;;;;;;25.73;9.05;;;;;;;-5.59;68.67;102452.88;2029577;29;20394;-65
2022/12/19 03:23:15;;;;;;;19.58;6.78;;;;;;;-5.60;68.87;102455.66;2027910;29;20047;-65
2022/12/19 03:24:23;;;;;;;27.80;9.43;;;;;;;-5.59;68.46;102454.69;2048494;28;20038;-65
2022/12/19 03:25:27;;;;;;;22.15;8.13;;;;;;;-5.60;68.27;102453.84;2026270;29;20040;-65
2022/12/19 03:26:36;;;;;;;15.20;6.30;;;;;;;-5.60;68.66;102450.41;2032253;29;20044;-65
2022/12/19 03:27:42;;;;;;;24.77;7.13;;;;;;;-5.56;68.59;102443.94;2043452;28;20039;-65
2022/12/19 03:28:50;;;;;;;18.42;8.80;;;;;;;-5.57;68.85;102450.16;2046607;29;20046;-65
2022/12/19 03:29:59;;;;;;;22.67;8.38;;;;;;;-5.59;68.76;102436.34;2038430;29;20047;-65
2022/12/19 03:31:04;;;;;;;23.02;6.88;;;;;;;-5.62;68.70;102436.59;2033766;29;20051;-65
2022/12/19 03:32:09;;;;;;;23.15;8.80;;;;;;;-5.64;68.31;102434.09;2036442;29;20055;-65
2022/12/19 03:33:15;;;;;;;17.15;6.07;;;;;;;-5.66;68.88;102433.41;2039767;29;20046;-66
2022/12/19 03:34:35;;;;;;;24.27;9.23;;;;;;;-5.73;68.68;102434.03;2032720;29;20040;-65
2022/12/19 03:35:39;;;;;;;14.63;5.35;;;;;;;-5.75;69.29;102428.06;2041830;28;20047;-65
2022/12/19 03:36:46;;;;;;;20.92;7.22;;;;;;;-5.76;69.21;102429.03;2048656;29;20427;-65
2022/12/19 03:37:51;;;;;;;20.42;6.68;;;;;;;-5.76;68.83;102435.09;2048664;28;20035;-65
2022/12/19 03:38:56;;;;;;;18.08;7.35;;;;;;;-5.73;69.16;102434.84;2039217;29;20068;-65
2022/12/19 03:40:02;;;;;;;22.50;7.95;;;;;;;-5.73;68.99;102434.84;2030189;29;20397;-65
2022/12/19 03:41:08;;;;;;;9.90;4.32;;;;;;;-5.71;69.17;102432.09;2041732;29;20546;-65
2022/12/19 03:43:40;;;;;;;20.40;7.72;;;;;;;-5.72;69.04;102436.50;2042343;29;20074;-65
2022/12/19 03:44:43;;;;;;;14.55;7.35;;;;;;;-5.69;69.74;102430.19;2040311;29;20125;-65
2022/12/19 03:46:06;;;;;;;25.05;6.78;;;;;;;-5.65;69.58;102431.59;2033794;29;20047;-65
2022/12/19 03:47:19;;;;;;;12.30;6.13;;;;;;;-5.62;69.48;102433.97;2044110;29;20399;-65
2022/12/19 03:48:42;;;;;;;33.97;9.05;;;;;;;-5.64;69.22;102422.81;2039462;29;20048;-65
2022/12/19 03:49:46;;;;;;;15.38;6.68;;;;;;;-5.64;69.46;102422.81;2045014;29;20035;-65
2022/12/19 03:51:01;;;;;;;28.92;7.03;;;;;;;-5.60;69.43;102435.50;2041720;29;20046;-65
2022/12/19 03:52:30;;;;;;;12.82;6.45;;;;;;;-5.60;69.28;102437.31;2030901;29;20055;-65
2022/12/19 03:53:50;;;;;;;9.60;4.47;;;;;;;-5.61;69.16;102427.78;2025073;29;20044;-65
2022/12/19 03:55:09;;;;;;;5.75;3.75;;;;;;;-5.61;69.02;102425.16;2034496;29;21048;-66
2022/12/19 03:56:24;;;;;;;;;;;;;;;-5.65;69.24;102421.94;2041740;29;20042;-65
2022/12/19 03:57:37;;;;;;;9.35;4.57;;;;;;;-5.69;69.39;102419.72;2049873;29;19914;-66
2022/12/19 03:58:44;;;;;;;14.80;6.68;;;;;;;-5.69;69.21;102419.72;2031527;29;20508;-65
2022/12/19 03:59:49;;;;;;;12.02;6.07;;;;;;;-5.68;69.02;102416.97;2028527;29;20052;-66
2022/12/19 04:00:52;;;;;;;17.17;5.88;;;;;;;-5.68;69.35;102424.00;2049073;29;20035;-66
2022/12/19 04:01:56;;;;;;;21.73;5.40;;;;;;;-5.71;69.17;102425.06;2050121;29;20035;-65
2022/12/19 04:03:01;;;;;;;10.25;4.93;;;;;;;-5.73;69.31;102419.13;2042870;29;20051;-66
2022/12/19 04:04:05;;;;;;;13.35;7.97;;;;;;;-5.75;69.37;102417.59;2042262;29;20090;-66
2022/12/19 04:05:16;;;;;;;11.13;7.15;;;;;;;-5.76;69.36;102418.56;2042238;28;20039;-66
2022/12/19 04:06:19;;;;;;;20.42;8.52;;;;;;;-5.76;69.51;102415.94;2037400;29;20032;-66
2022/12/19 04:07:23;;;;;;;22.25;8.05;;;;;;;-5.72;69.94;102417.34;2036075;29;20059;-65
2022/12/19 04:08:28;;;;;;;13.02;7.20;;;;;;;-5.68;69.28;102413.50;2045585;29;20046;-65
2022/12/19 04:09:32;;;;;;;6.38;5.20;;;;;;;-5.68;69.51;102416.13;2049028;29;20047;-66
2022/12/19 04:10:41;;;;;;;24.13;10.50;;;;;;;-5.67;69.42;102420.44;2041219;29;20040;-65
2022/12/19 04:11:50;;;;;;;20.23;6.85;;;;;;;-5.67;69.44;102415.19;2039965;29;20044;-65
2022/12/19 04:13:10;;;;;;;17.40;5.80;;;;;;;-5.70;69.52;102420.69;2037325;29;20478;-65
2022/12/19 04:14:21;;;;;;;13.52;4.32;;;;;;;-5.71;68.96;102411.13;2044194;29;20046;-65
2022/12/19 04:15:33;;;;;;;16.38;5.68;;;;;;;-5.70;69.56;102413.66;2049820;28;20039;-65
2022/12/19 04:16:54;;;;;;;14.38;6.57;;;;;;;-5.70;69.18;102412.81;2037188;29;20047;-65
2022/12/19 04:17:58;;;;;;;8.20;5.55;;;;;;;-5.70;69.35;102404.97;2031316;29;20047;-65
2022/12/19 04:19:26;;;;;;;20.60;7.07;;;;;;;-5.71;69.41;102400.66;2036894;29;20061;-66
2022/12/19 04:20:30;;;;;;;9.82;6.53;;;;;;;-5.69;69.35;102404.00;2032287;29;20058;-65
2022/12/19 04:21:43;;;;;;;12.98;4.40;;;;;;;-5.71;69.46;102396.25;2037268;29;20044;-65
2022/12/19 04:23:08;;;;;;;20.70;4.90;;;;;;;-5.72;69.78;102396.38;2036420;29;20043;-66
2022/12/19 04:24:18;;;;;;;28.35;5.88;;;;;;;-5.74;69.52;102401.75;2042600;29;20050;-66
2022/12/19 04:25:29;;;;;;;9.15;4.43;;;;;;;-5.78;69.50;102391.66;2049490;29;20035;-66
2022/12/19 04:26:38;;;;;;;19.77;5.78;;;;;;;-5.77;69.61;102394.13;2033894;29;20483;-66
2022/12/19 04:27:46;;;;;;;21.35;7.38;;;;;;;-5.76;68.97;102400.22;2033384;29;20047;-66
2022/12/19 04:28:53;;;;;;;14.50;5.65;;;;;;;-5.80;69.42;102396.19;2043885;29;20035;-67
2022/12/19 04:29:57;;;;;;;17.10;7.25;;;;;;;-5.83;69.72;102399.91;2048162;29;20494;-67
2022/12/19 04:31:03;;;;;;;19.70;7.60;;;;;;;-5.85;69.60;102400.00;2044546;29;20047;-64
2022/12/19 04:32:10;;;;;;;20.40;8.13;;;;;;;-5.85;69.86;102401.81;2043545;29;20397;-66
2022/12/19 04:33:12;;;;;;;15.90;6.22;;;;;;;-5.87;69.86;102390.59;2036908;29;20055;-67
2022/12/19 04:34:20;;;;;;;19.02;6.10;;;;;;;-5.86;69.70;102381.81;2043847;29;20468;-64
2022/12/19 04:35:22;;;;;;;17.50;4.55;;;;;;;-5.89;69.89;102382.88;2044662;28;20051;-64
2022/12/19 04:36:25;;;;;;;18.30;6.97;;;;;;;-5.89;69.88;102390.75;2033017;29;20050;-66
2022/12/19 04:37:29;;;;;;;21.50;7.72;;;;;;;-5.88;70.05;102381.09;2029350;29;20035;-64
2022/12/19 04:38:34;;;;;;;12.55;6.10;;;;;;;-5.88;70.14;102384.53;2040997;29;20063;-65
2022/12/19 04:39:39;;;;;;;22.70;5.93;;;;;;;-5.89;70.11;102380.28;2049111;28;20050;-66
2022/12/19 04:40:42;;;;;;;8.20;4.18;;;;;;;-5.86;70.25;102387.06;2049501;29;20039;-66
2022/12/19 04:41:44;;;;;;;21.23;5.93;;;;;;;-5.85;70.05;102379.06;2044817;28;20039;-67
2022/12/19 04:42:46;;;;;;;10.85;4.93;;;;;;;-5.87;69.99;102380.97;2045020;29;20042;-64
2022/12/19 04:43:50;;;;;;;11.80;5.32;;;;;;;-5.88;70.04;102378.47;2036876;29;20043;-64
2022/12/19 04:44:57;;;;;;;18.02;6.85;;;;;;;-5.86;70.32;102374.78;2037467;29;20063;-66
2022/12/19 04:45:59;;;;;;;17.23;7.97;;;;;;;-5.85;70.25;102368.56;2028538;29;20044;-67
2022/12/19 04:47:01;;;;;;;14.15;6.15;;;;;;;-5.85;69.92;102368.56;2028118;29;20964;-66
2022/12/19 04:48:04;;;;;;;21.98;7.05;;;;;;;-5.86;70.26;102372.16;2036942;29;20058;-66
2022/12/19 04:49:06;;;;;;;14.18;6.10;;;;;;;-5.84;70.24;102369.41;2033357;29;20233;-66
2022/12/19 04:50:11;;;;;;;15.85;7.00;;;;;;;-5.82;69.80;102384.03;2041815;29;20054;-66
2022/12/19 04:51:15;;;;;;;12.40;5.03;;;;;;;-5.85;70.00;102371.19;2048314;29;20526;-66
2022/12/19 04:52:18;;;;;;;13.18;4.32;;;;;;;-5.86;70.31;102364.31;2044872;29;20127;-63
2022/12/19 04:53:23;;;;;;;10.85;5.63;;;;;;;-5.89;70.26;102369.78;2036468;29;20123;-66
2022/12/19 04:54:28;;;;;;;10.65;5.45;;;;;;;-5.91;70.43;102361.22;2041337;29;20039;-66
2022/12/19 04:55:31;;;;;;;15.88;6.45;;;;;;;-5.92;70.48;102362.19;2044001;28;20046;-66
2022/12/19 04:56:35;;;;;;;22.65;4.05;;;;;;;-5.95;70.27;102357.22;2041867;29;20047;-66
2022/12/19 04:57:41;;;;;;;9.27;4.63;;;;;;;-5.96;70.42;102360.78;2044385;29;20047;-66
2022/12/19 04:58:44;;;;;;;24.30;7.28;;;;;;;-5.95;70.51;102359.03;2028426;29;21409;-66
2022/12/19 04:59:46;;;;;;;14.13;5.53;;;;;;;-5.93;70.30;102355.31;2028289;29;20112;-66
2022/12/19 05:00:47;;;;;;;9.55;5.13;;;;;;;-5.89;70.50;102354.06;2044686;29;20035;-66
2022/12/19 05:01:50;;;;;;;8.40;3.55;;;;;;;-5.88;70.04;102362.75;2037658;29;20380;-66
2022/12/19 05:02:55;;;;;;;13.55;6.82;;;;;;;-5.90;70.75;102355.00;2037656;29;20047;-67
2022/12/19 05:03:57;;;;;;;13.43;6.53;;;;;;;-5.88;70.54;102353.09;2036560;29;20032;-67
2022/12/19 05:05:02;;;;;;;8.45;4.68;;;;;;;-5.85;70.43;102357.28;2038194;29;20405;-66
2022/12/19 05:06:12;;;;;;;14.98;6.03;;;;;;;-5.85;70.45;102352.03;2043742;29;20408;-66
2022/12/19 05:07:13;;;;;;;10.10;5.13;;;;;;;-5.88;70.05;102368.81;2047307;28;20058;-66
2022/12/19 05:08:16;;;;;;;8.40;3.47;;;;;;;-5.90;70.49;102357.63;2048405;29;20043;-66
2022/12/19 05:09:22;;;;;;;15.68;5.95;;;;;;;-5.90;70.02;102349.78;2044477;29;20035;-67
2022/12/19 05:10:23;;;;;;;17.48;5.63;;;;;;;-5.92;70.68;102346.47;2038021;29;20050;-66
2022/12/19 05:11:25;;;;;;;18.90;7.00;;;;;;;-5.93;70.73;102363.16;2032958;29;20092;-66